createdAt,value
2022-10-23T00:01:26.487Z,27.40
2022-10-23T00:03:59.637Z,99.90
2022-10-23T00:06:28.118Z,99.90
2022-10-23T00:08:55.881Z,99.90
2022-10-23T00:11:25.780Z,99.90
2022-10-23T00:13:55.159Z,99.90
2022-10-23T00:16:22.299Z,99.90
2022-10-23T00:18:49.441Z,99.90
2022-10-23T00:21:17.655Z,99.90
2022-10-23T00:23:45.633Z,99.90
2022-10-23T00:26:16.348Z,58.50
2022-10-23T00:28:45.267Z,1.00
2022-10-23T00:31:13.178Z,1.00
2022-10-23T00:33:40.345Z,1.00
2022-10-23T00:36:09.465Z,1.00
2022-10-23T00:38:36.873Z,99.90
2022-10-23T00:41:04.631Z,99.90
2022-10-23T00:43:32.564Z,99.90
2022-10-23T00:45:59.864Z,99.90
2022-10-23T00:48:28.791Z,99.90
2022-10-23T00:50:56.651Z,99.90
2022-10-23T00:53:24.847Z,99.90
2022-10-23T00:55:54.035Z,99.90
2022-10-23T00:58:21.744Z,99.90
2022-10-23T01:00:53.818Z,99.90
2022-10-23T01:03:25.184Z,99.90
2022-10-23T01:06:23.281Z,99.90
2022-10-23T01:08:59.420Z,99.90
2022-10-23T01:11:36.059Z,99.90
2022-10-23T01:14:23.701Z,99.90
2022-10-23T01:17:15.288Z,99.90
2022-10-23T01:19:48.433Z,99.90
2022-10-23T01:22:34.048Z,99.90
2022-10-23T01:25:28.231Z,1.00
2022-10-23T01:28:06.055Z,1.00
2022-10-23T01:30:35.480Z,99.90
2022-10-23T01:33:08.345Z,99.90
2022-10-23T01:35:40.763Z,99.90
2022-10-23T01:38:20.649Z,99.90
2022-10-23T01:41:02.296Z,99.90
2022-10-23T01:43:40.047Z,1.00
2022-10-23T01:46:12.832Z,1.00
2022-10-23T01:48:41.559Z,1.00
2022-10-23T01:51:10.929Z,1.00
2022-10-23T01:53:41.436Z,1.00
2022-10-23T01:56:12.474Z,30.80
2022-10-23T01:58:42.839Z,99.90
2022-10-23T02:01:11.445Z,99.90
2022-10-23T02:03:42.428Z,99.90
2022-10-23T02:06:09.469Z,99.90
2022-10-23T02:08:36.783Z,94.80
2022-10-23T02:11:21.818Z,95.60
2022-10-23T02:14:08.091Z,99.90
2022-10-23T02:16:38.060Z,99.90
2022-10-23T02:19:19.752Z,99.90
2022-10-23T02:21:53.264Z,99.90
2022-10-23T02:25:02.201Z,84.80
2022-10-23T02:27:36.799Z,79.90
2022-10-23T02:30:12.320Z,20.10
2022-10-23T02:32:46.181Z,61.80
2022-10-23T02:35:13.715Z,90.10
2022-10-23T02:37:40.842Z,99.90
2022-10-23T02:40:10.072Z,99.90
2022-10-23T02:42:42.945Z,99.90
2022-10-23T02:45:16.195Z,99.90
2022-10-23T02:48:06.585Z,99.90
2022-10-23T02:51:07.366Z,99.90
2022-10-23T02:53:46.662Z,1.00
2022-10-23T02:56:16.339Z,1.00
2022-10-23T02:59:05.015Z,1.00
2022-10-23T03:01:43.023Z,1.00
2022-10-23T03:04:11.551Z,1.00
2022-10-23T03:06:38.900Z,99.90
2022-10-23T03:09:08.699Z,99.90
2022-10-23T03:11:36.260Z,99.90
2022-10-23T03:14:03.273Z,99.90
2022-10-23T03:16:30.406Z,70.00
2022-10-23T03:18:57.381Z,38.90
2022-10-23T03:21:24.536Z,41.20
2022-10-23T03:23:51.469Z,99.90
2022-10-23T03:26:18.483Z,99.90
2022-10-23T03:28:45.644Z,99.90
2022-10-23T03:31:12.660Z,99.90
2022-10-23T03:33:39.531Z,1.00
2022-10-23T03:36:06.679Z,1.00
2022-10-23T03:38:33.636Z,1.00
2022-10-23T03:41:00.580Z,1.00
2022-10-23T03:43:27.471Z,1.00
2022-10-23T03:45:56.585Z,1.00
2022-10-23T03:48:24.970Z,1.00
2022-10-23T03:50:51.883Z,1.00
2022-10-23T03:53:19.222Z,99.90
2022-10-23T03:55:46.358Z,99.90
2022-10-23T03:58:13.470Z,99.90
2022-10-23T04:00:40.522Z,99.90
2022-10-23T04:03:07.463Z,1.00
2022-10-23T04:05:36.057Z,1.00
2022-10-23T04:08:03.033Z,99.90
2022-10-23T04:10:29.945Z,99.90
2022-10-23T04:12:56.855Z,99.90
2022-10-23T04:15:23.835Z,99.90
2022-10-23T04:17:50.885Z,99.90
2022-10-23T04:20:18.154Z,99.90
2022-10-23T04:22:45.765Z,99.90
2022-10-23T04:25:13.410Z,99.90
2022-10-23T04:27:40.655Z,99.90
2022-10-23T04:30:08.681Z,99.90
2022-10-23T04:32:35.757Z,99.90
2022-10-23T04:35:02.903Z,99.90
2022-10-23T04:37:30.121Z,99.90
2022-10-23T04:39:57.138Z,99.90
2022-10-23T04:42:24.296Z,99.90
2022-10-23T04:44:51.393Z,99.90
2022-10-23T04:47:18.327Z,99.90
2022-10-23T04:49:45.272Z,99.90
2022-10-23T04:52:12.193Z,99.90
2022-10-23T04:54:40.176Z,99.90
2022-10-23T04:57:07.114Z,99.90
2022-10-23T04:59:34.217Z,99.90
2022-10-23T05:02:01.254Z,99.90
2022-10-23T05:04:28.153Z,99.90
2022-10-23T05:06:55.086Z,99.90
2022-10-23T05:09:22.519Z,99.90
2022-10-23T05:11:49.591Z,99.90
2022-10-23T05:14:20.624Z,99.90
2022-10-23T05:17:00.980Z,99.90
2022-10-23T05:19:32.906Z,99.90
2022-10-23T05:22:00.136Z,99.90
2022-10-23T05:24:27.314Z,99.90
2022-10-23T05:26:54.647Z,99.90
2022-10-23T05:29:21.897Z,99.90
2022-10-23T05:31:51.970Z,99.90
2022-10-23T05:34:22.447Z,99.90
2022-10-23T05:36:49.602Z,99.90
2022-10-23T05:39:16.892Z,99.90
2022-10-23T05:41:44.293Z,99.90
2022-10-23T05:44:11.355Z,99.90
2022-10-23T05:46:44.553Z,99.90
2022-10-23T05:49:11.723Z,99.90
2022-10-23T05:51:40.454Z,99.90
2022-10-23T05:54:08.426Z,99.90
2022-10-23T05:56:37.267Z,99.90
2022-10-23T05:59:04.586Z,99.90
2022-10-23T06:01:31.810Z,99.90
2022-10-23T06:04:02.774Z,99.90
2022-10-23T06:06:30.007Z,99.90
2022-10-23T06:08:57.153Z,99.90
2022-10-23T06:11:24.224Z,99.90
2022-10-23T06:13:51.580Z,99.90
2022-10-23T06:16:21.583Z,99.90
2022-10-23T06:18:48.924Z,99.90
2022-10-23T06:21:16.610Z,99.90
2022-10-23T06:23:44.417Z,99.90
2022-10-23T06:26:14.279Z,99.90
2022-10-23T06:28:41.751Z,99.90
2022-10-23T06:31:11.481Z,99.90
2022-10-23T06:33:38.825Z,99.90
2022-10-23T06:36:06.364Z,99.90
2022-10-23T06:38:37.132Z,99.90
2022-10-23T06:41:05.410Z,99.90
2022-10-23T06:43:32.352Z,99.90
2022-10-23T06:46:04.425Z,99.90
2022-10-23T06:48:32.591Z,99.90
2022-10-23T06:51:00.001Z,99.90
2022-10-23T06:53:28.193Z,99.90
2022-10-23T06:56:03.621Z,99.90
2022-10-23T06:58:31.013Z,99.90
2022-10-23T07:01:01.681Z,99.90
2022-10-23T07:03:28.924Z,99.90
2022-10-23T07:05:55.951Z,99.90
2022-10-23T07:08:24.184Z,99.90
2022-10-23T07:10:51.149Z,99.90
2022-10-23T07:13:18.176Z,99.90
2022-10-23T07:15:45.347Z,99.90
2022-10-23T07:18:16.680Z,99.90
2022-10-23T07:20:43.876Z,99.90
2022-10-23T07:23:12.475Z,99.90
2022-10-23T07:25:39.475Z,99.90
2022-10-23T07:28:06.706Z,99.90
2022-10-23T07:30:33.862Z,99.90
2022-10-23T07:33:00.836Z,99.90
2022-10-23T07:35:27.910Z,99.90
2022-10-23T07:37:54.790Z,99.90
2022-10-23T07:40:21.951Z,99.90
2022-10-23T07:42:49.523Z,99.90
2022-10-23T07:45:16.983Z,99.90
2022-10-23T07:47:44.050Z,99.90
2022-10-23T07:50:11.555Z,99.90
2022-10-23T07:52:39.176Z,99.90
2022-10-23T07:55:06.450Z,99.90
2022-10-23T07:57:33.523Z,99.90
2022-10-23T08:00:00.535Z,99.90
2022-10-23T08:02:27.538Z,99.90
2022-10-23T08:04:54.800Z,99.90
2022-10-23T08:07:21.777Z,99.90
2022-10-23T08:09:48.857Z,99.90
2022-10-23T08:12:15.979Z,99.90
2022-10-23T08:14:43.163Z,99.90
2022-10-23T08:17:10.360Z,99.90
2022-10-23T08:19:37.425Z,99.90
2022-10-23T08:22:04.648Z,99.90
2022-10-23T08:24:31.587Z,99.90
2022-10-23T08:26:59.631Z,99.90
2022-10-23T08:29:26.764Z,99.90
2022-10-23T08:31:56.396Z,99.90
2022-10-23T08:34:23.989Z,99.90
2022-10-23T08:36:51.401Z,99.90
2022-10-23T08:39:18.405Z,99.90
2022-10-23T08:41:51.402Z,99.90
2022-10-23T08:44:40.867Z,99.90
2022-10-23T08:47:39.149Z,99.90
2022-10-23T08:50:12.477Z,99.90
2022-10-23T08:52:52.793Z,99.90
2022-10-23T08:55:41.036Z,99.90
2022-10-23T08:58:23.661Z,99.90
2022-10-23T09:00:51.598Z,99.90
2022-10-23T09:03:18.854Z,99.90
2022-10-23T09:05:46.340Z,99.90
2022-10-23T09:08:22.058Z,99.90
2022-10-23T09:11:03.431Z,99.90
2022-10-23T09:13:47.263Z,99.90
2022-10-23T09:16:42.301Z,99.90
2022-10-23T09:19:19.018Z,99.90
2022-10-23T09:21:50.082Z,99.90
2022-10-23T09:24:19.825Z,99.90
2022-10-23T09:26:49.807Z,99.90
2022-10-23T09:29:36.202Z,99.90
2022-10-23T09:32:06.976Z,99.90
2022-10-23T09:34:34.908Z,99.90
2022-10-23T09:37:22.049Z,99.90
2022-10-23T09:39:49.724Z,99.90
2022-10-23T09:42:25.871Z,99.90
2022-10-23T09:44:54.905Z,99.90
2022-10-23T09:47:24.500Z,99.90
2022-10-23T09:49:57.110Z,99.90
2022-10-23T09:52:37.025Z,99.90
2022-10-23T09:55:25.044Z,99.90
2022-10-23T09:57:54.172Z,99.90
2022-10-23T10:00:24.479Z,99.90
2022-10-23T10:03:00.267Z,99.90
2022-10-23T10:05:31.679Z,99.90
2022-10-23T10:08:07.509Z,99.90
2022-10-23T10:10:43.831Z,1.00
2022-10-23T10:13:31.385Z,1.00
2022-10-23T10:16:28.817Z,99.90
2022-10-23T10:19:32.530Z,99.90
2022-10-23T10:22:24.519Z,1.00
2022-10-23T10:24:51.491Z,1.00
2022-10-23T10:27:49.156Z,1.00
2022-10-23T10:30:24.336Z,99.90
2022-10-23T10:33:17.742Z,1.00
2022-10-23T10:35:56.600Z,1.00
2022-10-23T10:38:38.737Z,1.00
2022-10-23T10:41:20.315Z,1.00
2022-10-23T10:44:21.839Z,99.90
2022-10-23T10:47:10.219Z,99.90
2022-10-23T10:49:54.341Z,36.60
2022-10-23T10:52:40.777Z,1.00
2022-10-23T10:55:21.697Z,1.00
2022-10-23T10:58:13.826Z,99.90
2022-10-23T11:00:41.179Z,99.90
2022-10-23T11:03:25.139Z,99.90
2022-10-23T11:05:55.117Z,45.00
2022-10-23T11:08:49.773Z,25.00
2022-10-23T11:11:40.852Z,37.00
2022-10-23T11:14:27.857Z,77.90
2022-10-23T11:17:00.905Z,98.00
2022-10-23T11:19:37.893Z,99.90
2022-10-23T11:22:12.823Z,99.90
2022-10-23T11:25:13.246Z,99.90
2022-10-23T11:27:49.417Z,99.90
2022-10-23T11:30:24.996Z,99.90
2022-10-23T11:32:58.161Z,99.90
2022-10-23T11:35:48.016Z,99.90
2022-10-23T11:38:25.921Z,99.90
2022-10-23T11:41:01.347Z,99.90
2022-10-23T11:43:48.769Z,1.00
2022-10-23T11:46:36.227Z,1.00
2022-10-23T11:49:06.190Z,1.00
2022-10-23T11:51:41.253Z,1.00
2022-10-23T11:54:28.458Z,1.00
2022-10-23T11:57:10.409Z,1.00
2022-10-23T11:59:54.761Z,1.00
2022-10-23T12:02:24.725Z,25.10
2022-10-23T12:04:53.971Z,99.90
2022-10-23T12:07:28.116Z,99.90
2022-10-23T12:10:17.620Z,99.90
2022-10-23T12:12:59.019Z,99.90
2022-10-23T12:15:27.021Z,1.00
2022-10-23T12:17:56.316Z,1.00
2022-10-23T12:20:33.521Z,1.00
2022-10-23T12:23:21.772Z,1.00
2022-10-23T12:26:26.041Z,54.00
2022-10-23T12:29:16.586Z,99.90
2022-10-23T12:32:03.711Z,99.90
2022-10-23T12:34:42.555Z,99.90
2022-10-23T12:37:38.365Z,99.90
2022-10-23T12:40:10.301Z,1.00
2022-10-23T12:42:38.324Z,1.00
2022-10-23T12:45:19.453Z,1.00
2022-10-23T12:47:47.584Z,1.00
2022-10-23T12:50:25.371Z,1.00
2022-10-23T12:53:04.359Z,1.00
2022-10-23T12:55:46.532Z,1.00
2022-10-23T12:58:32.741Z,1.00
2022-10-23T13:01:03.765Z,1.00
2022-10-23T13:03:32.360Z,1.00
2022-10-23T13:06:02.705Z,1.00
2022-10-23T13:08:37.196Z,1.00
2022-10-23T13:11:05.477Z,1.00
2022-10-23T13:13:32.840Z,1.00
2022-10-23T13:15:59.866Z,99.90
2022-10-23T13:18:26.825Z,99.90
2022-10-23T13:20:53.685Z,99.90
2022-10-23T13:23:31.296Z,99.90
2022-10-23T13:26:02.814Z,99.90
2022-10-23T13:28:44.446Z,99.90
2022-10-23T13:31:12.346Z,1.00
2022-10-23T13:34:01.206Z,1.00
2022-10-23T13:36:30.552Z,1.00
2022-10-23T13:39:03.042Z,1.00
2022-10-23T13:41:45.464Z,1.00
2022-10-23T13:44:15.231Z,86.80
2022-10-23T13:46:42.424Z,99.90
2022-10-23T13:49:09.860Z,99.90
2022-10-23T13:51:54.395Z,99.90
2022-10-23T13:56:58.444Z,1.00
2022-10-23T13:59:25.422Z,99.90
2022-10-23T14:01:52.757Z,99.90
2022-10-23T14:04:20.793Z,99.90
2022-10-23T14:06:47.769Z,1.00
2022-10-23T14:09:16.812Z,1.00
2022-10-23T14:11:44.493Z,1.00
2022-10-23T14:14:12.034Z,59.40
2022-10-23T14:16:39.836Z,99.90
2022-10-23T14:19:08.002Z,99.90
2022-10-23T14:21:35.018Z,99.90
2022-10-23T14:24:01.931Z,99.90
2022-10-23T14:26:30.442Z,1.00
2022-10-23T14:29:01.061Z,1.00
2022-10-23T14:31:32.090Z,1.00
2022-10-23T14:34:00.882Z,1.00
2022-10-23T14:36:38.365Z,99.90
2022-10-23T14:39:15.935Z,1.00
2022-10-23T14:41:42.810Z,1.00
2022-10-23T14:44:09.796Z,1.00
2022-10-23T14:46:38.442Z,99.90
2022-10-23T14:49:05.875Z,99.90
2022-10-23T14:51:34.270Z,99.90
2022-10-23T14:54:03.675Z,99.90
2022-10-23T14:56:37.546Z,99.90
2022-10-23T14:59:05.155Z,99.90
2022-10-23T15:01:42.259Z,99.90
2022-10-23T15:04:14.770Z,99.90
2022-10-23T15:06:42.506Z,99.90
2022-10-23T15:09:09.656Z,99.90
2022-10-23T15:11:36.584Z,99.90
2022-10-23T15:14:03.477Z,99.90
2022-10-23T15:16:30.525Z,9.10
2022-10-23T15:18:57.478Z,1.00
2022-10-23T15:21:24.437Z,1.00
2022-10-23T15:23:51.397Z,1.00
2022-10-23T15:26:22.581Z,1.00
2022-10-23T15:28:57.442Z,9.10
2022-10-23T15:31:41.661Z,99.90
2022-10-23T15:34:11.496Z,99.90
2022-10-23T15:36:38.807Z,1.00
2022-10-23T15:39:10.809Z,1.00
2022-10-23T15:41:39.854Z,99.90
2022-10-23T15:44:07.937Z,99.90
2022-10-23T15:46:35.595Z,1.00
2022-10-23T15:49:02.635Z,90.80
2022-10-23T15:51:29.703Z,99.90
2022-10-23T15:53:57.137Z,1.00
2022-10-23T15:56:25.220Z,99.90
2022-10-23T15:58:52.556Z,1.00
2022-10-23T16:01:19.633Z,1.00
2022-10-23T16:03:47.025Z,1.00
2022-10-23T16:06:16.190Z,99.90
2022-10-23T16:08:46.088Z,99.90
2022-10-23T16:11:27.700Z,99.90
2022-10-23T16:13:55.992Z,99.90
2022-10-23T16:16:22.937Z,99.90
2022-10-23T16:18:49.893Z,99.90
2022-10-23T16:21:23.368Z,99.90
2022-10-23T16:23:51.405Z,99.90
2022-10-23T16:26:19.082Z,99.90
2022-10-23T16:28:47.290Z,99.90
2022-10-23T16:31:20.045Z,99.90
2022-10-23T16:33:48.853Z,99.90
2022-10-23T16:36:16.947Z,99.90
2022-10-23T16:38:43.834Z,99.90
2022-10-23T16:41:11.121Z,99.90
2022-10-23T16:43:38.181Z,99.90
2022-10-23T16:46:07.571Z,99.90
2022-10-23T16:48:35.767Z,99.90
2022-10-23T16:51:11.455Z,99.90
2022-10-23T16:53:38.714Z,99.90
2022-10-23T16:56:08.166Z,99.90
2022-10-23T16:58:37.040Z,99.90
2022-10-23T17:01:07.403Z,99.90
2022-10-23T17:03:36.522Z,99.90
2022-10-23T17:06:11.267Z,99.90
2022-10-23T17:08:39.221Z,99.90
2022-10-23T17:11:13.474Z,99.90
2022-10-23T17:13:45.815Z,99.90
2022-10-23T17:16:14.200Z,99.90
2022-10-23T17:18:44.030Z,99.90
2022-10-23T17:21:12.635Z,99.90
2022-10-23T17:23:39.852Z,99.90
2022-10-23T17:26:09.302Z,99.90
2022-10-23T17:28:39.980Z,99.90
2022-10-23T17:31:21.909Z,99.90
2022-10-23T17:33:51.577Z,99.90
2022-10-23T17:36:20.240Z,99.90
2022-10-23T17:38:47.267Z,99.90
2022-10-23T17:41:16.341Z,99.90
2022-10-23T17:43:44.654Z,99.90
2022-10-23T17:46:13.332Z,99.90
2022-10-23T17:48:43.512Z,99.90
2022-10-23T17:51:25.189Z,99.90
2022-10-23T17:53:54.045Z,99.90
2022-10-23T17:56:24.255Z,99.90
2022-10-23T17:58:53.432Z,99.90
2022-10-23T18:01:26.874Z,99.90
2022-10-23T18:03:55.744Z,99.90
2022-10-23T18:06:29.697Z,99.90
2022-10-23T18:08:57.213Z,99.90
2022-10-23T18:11:30.169Z,99.90
2022-10-23T18:16:25.859Z,99.90
2022-10-23T18:18:52.926Z,99.90
2022-10-23T18:21:22.440Z,99.90
2022-10-23T18:23:50.116Z,99.90
2022-10-23T18:26:23.937Z,99.90
2022-10-23T18:28:53.767Z,99.90
2022-10-23T18:31:21.551Z,99.90
2022-10-23T18:33:48.541Z,99.90
2022-10-23T18:36:24.847Z,99.90
2022-10-23T18:38:52.108Z,99.90
2022-10-23T18:41:19.992Z,99.90
2022-10-23T18:43:46.990Z,99.90
2022-10-23T18:46:14.682Z,99.90
2022-10-23T18:48:42.466Z,99.90
2022-10-23T18:51:17.596Z,99.90
2022-10-23T18:53:46.889Z,99.90
2022-10-23T18:56:23.266Z,99.90
2022-10-23T18:58:54.416Z,99.90
2022-10-23T19:01:25.017Z,99.90
2022-10-23T19:03:52.110Z,99.90
2022-10-23T19:06:19.923Z,99.90
2022-10-23T19:08:47.592Z,99.90
2022-10-23T19:11:16.321Z,99.90
2022-10-23T19:13:44.973Z,99.90
2022-10-23T19:16:18.706Z,99.90
2022-10-23T19:18:53.562Z,99.90
2022-10-23T19:21:33.281Z,99.90
2022-10-23T19:24:15.704Z,99.90
2022-10-23T19:26:43.912Z,99.90
2022-10-23T19:29:15.559Z,99.90
2022-10-23T19:31:49.495Z,99.90
2022-10-23T19:34:25.205Z,99.90
2022-10-23T19:36:55.907Z,99.90
2022-10-23T19:39:29.799Z,99.90
2022-10-23T19:41:57.777Z,99.90
2022-10-23T19:44:25.825Z,99.90
2022-10-23T19:46:52.872Z,99.90
2022-10-23T19:49:23.963Z,99.90
2022-10-23T19:51:51.670Z,99.90
2022-10-23T19:54:20.404Z,99.90
2022-10-23T19:56:51.051Z,99.90
2022-10-23T19:59:19.172Z,99.90
2022-10-23T20:01:48.198Z,99.90
2022-10-23T20:04:17.443Z,99.90
2022-10-23T20:06:44.332Z,99.90
2022-10-23T20:09:11.510Z,99.90
2022-10-23T20:11:40.172Z,99.90
2022-10-23T20:14:08.004Z,99.90
2022-10-23T20:16:37.813Z,99.90
2022-10-23T20:19:08.619Z,99.90
2022-10-23T20:21:39.834Z,99.90
2022-10-23T20:24:08.001Z,99.90
2022-10-23T20:26:41.106Z,99.90
2022-10-23T20:29:08.375Z,99.90
2022-10-23T20:31:36.716Z,99.90
2022-10-23T20:34:04.451Z,99.90
2022-10-23T20:36:34.050Z,99.90
2022-10-23T20:39:13.572Z,99.90
2022-10-23T20:41:41.895Z,99.90
2022-10-23T20:44:12.382Z,99.90
2022-10-23T20:46:40.719Z,99.90
2022-10-23T20:49:07.855Z,99.90
2022-10-23T20:51:36.230Z,99.90
2022-10-23T20:54:04.701Z,99.90
2022-10-23T20:56:34.890Z,99.90
2022-10-23T20:59:04.280Z,99.90
2022-10-23T21:01:32.524Z,99.90
2022-10-23T21:04:01.308Z,99.90
2022-10-23T21:06:41.011Z,99.90
2022-10-23T21:09:17.313Z,99.90
2022-10-23T21:11:44.307Z,99.90
2022-10-23T21:14:11.207Z,99.90
2022-10-23T21:16:44.583Z,99.90
2022-10-23T21:19:14.519Z,99.90
2022-10-23T21:21:42.076Z,99.90
2022-10-23T21:24:14.250Z,99.90
2022-10-23T21:26:41.500Z,99.90
2022-10-23T21:29:21.120Z,99.90
2022-10-23T21:31:56.701Z,99.90
2022-10-23T21:34:25.124Z,99.90
2022-10-23T21:37:13.328Z,99.90
2022-10-23T21:39:41.784Z,99.90
2022-10-23T21:42:08.759Z,99.90
2022-10-23T21:44:35.876Z,99.90
2022-10-23T21:47:02.780Z,99.90
2022-10-23T21:49:29.890Z,99.90
2022-10-23T21:51:56.820Z,99.90
2022-10-23T21:54:23.773Z,99.90
2022-10-23T21:56:53.825Z,99.90
2022-10-23T21:59:24.366Z,99.90
2022-10-23T22:01:52.299Z,99.90
2022-10-23T22:04:20.537Z,99.90
2022-10-23T22:06:49.787Z,99.90
2022-10-23T22:09:19.566Z,99.90
2022-10-23T22:11:50.518Z,99.90
2022-10-23T22:14:18.304Z,99.90
2022-10-23T22:16:45.770Z,99.90
2022-10-23T22:19:14.642Z,99.90
2022-10-23T22:21:41.759Z,99.90
2022-10-23T22:24:09.750Z,99.90
2022-10-23T22:26:42.949Z,99.90
2022-10-23T22:29:15.533Z,99.90
2022-10-23T22:31:45.490Z,99.90
2022-10-23T22:34:28.655Z,99.90
2022-10-23T22:37:06.167Z,99.90
2022-10-23T22:39:33.053Z,99.90
2022-10-23T22:41:59.928Z,99.90
2022-10-23T22:44:27.153Z,99.90
2022-10-23T22:46:54.399Z,99.90
2022-10-23T22:49:21.580Z,99.90
2022-10-23T22:51:48.558Z,99.90
2022-10-23T22:54:15.493Z,99.90
2022-10-23T22:56:42.614Z,99.90
2022-10-23T22:59:09.514Z,99.90
2022-10-23T23:01:43.079Z,99.90
2022-10-23T23:04:32.942Z,99.90
2022-10-23T23:07:00.031Z,99.90
2022-10-23T23:09:27.040Z,99.90
2022-10-23T23:11:54.049Z,99.90
2022-10-23T23:14:24.064Z,99.90
2022-10-23T23:16:53.277Z,99.90
2022-10-23T23:19:20.424Z,99.90
2022-10-23T23:21:47.413Z,99.90
2022-10-23T23:24:14.505Z,99.90
2022-10-23T23:26:41.506Z,99.90
2022-10-23T23:29:08.552Z,99.90
2022-10-23T23:31:35.497Z,99.90
2022-10-23T23:34:02.474Z,99.90
2022-10-23T23:36:29.502Z,99.90
2022-10-23T23:38:57.778Z,99.90
2022-10-23T23:41:26.548Z,99.90
2022-10-23T23:43:58.304Z,99.90
2022-10-23T23:46:25.964Z,99.90
2022-10-23T23:48:52.863Z,99.90
2022-10-23T23:51:25.388Z,99.90
2022-10-23T23:53:53.222Z,99.90
2022-10-23T23:56:21.043Z,99.90
2022-10-23T23:58:48.013Z,99.90
